sensor_id;sensor_type;location;lat;lon;timestamp;P1;durP1;ratioP1;P2;durP2;ratioP2
34242;SDS011;20504;43.214;27.920;2022-12-07T11:22:06;28.92;;;15.93;;
34242;SDS011;20504;43.214;27.920;2022-12-07T11:25:15;36.10;;;16.73;;
34242;SDS011;20504;43.214;27.920;2022-12-07T11:33:22;21.33;;;13.20;;
34242;SDS011;20504;43.214;27.920;2022-12-07T11:35:57;18.70;;;12.05;;
34242;SDS011;20504;43.214;27.920;2022-12-07T11:39:10;20.85;;;12.68;;
34242;SDS011;20504;43.214;27.920;2022-12-07T11:41:38;17.90;;;12.55;;
34242;SDS011;20504;43.214;27.920;2022-12-07T11:44:31;14.55;;;11.57;;
34242;SDS011;20504;43.214;27.920;2022-12-07T11:47:06;24.35;;;12.77;;
34242;SDS011;20504;43.214;27.920;2022-12-07T11:49:47;21.10;;;13.23;;
34242;SDS011;20504;43.214;27.920;2022-12-07T11:52:53;21.58;;;13.60;;
34242;SDS011;20504;43.214;27.920;2022-12-07T12:03:53;20.58;;;12.40;;
34242;SDS011;20504;43.214;27.920;2022-12-07T12:06:41;19.48;;;12.57;;
34242;SDS011;20504;43.214;27.920;2022-12-07T12:09:16;20.02;;;13.00;;
34242;SDS011;20504;43.214;27.920;2022-12-07T12:17:47;21.42;;;13.20;;
34242;SDS011;20504;43.214;27.920;2022-12-07T12:22:45;21.52;;;13.75;;
34242;SDS011;20504;43.214;27.920;2022-12-07T12:25:24;22.58;;;13.15;;
34242;SDS011;20504;43.214;27.920;2022-12-07T12:27:54;21.38;;;13.63;;
34242;SDS011;20504;43.214;27.920;2022-12-07T12:30:28;29.83;;;15.60;;
34242;SDS011;20504;43.214;27.920;2022-12-07T12:33:04;22.38;;;14.73;;
34242;SDS011;20504;43.214;27.920;2022-12-07T12:35:45;22.30;;;14.43;;
34242;SDS011;20504;43.214;27.920;2022-12-07T12:38:23;30.87;;;14.53;;
34242;SDS011;20504;43.214;27.920;2022-12-07T12:41:50;28.67;;;15.38;;
34242;SDS011;20504;43.214;27.920;2022-12-07T12:51:46;26.90;;;15.23;;
34242;SDS011;20504;43.214;27.920;2022-12-07T13:02:30;20.20;;;13.00;;
34242;SDS011;20504;43.214;27.920;2022-12-07T13:05:00;25.20;;;13.73;;
34242;SDS011;20504;43.214;27.920;2022-12-07T13:15:47;32.97;;;12.73;;
34242;SDS011;20504;43.214;27.920;2022-12-07T13:20:56;22.15;;;12.63;;
34242;SDS011;20504;43.214;27.920;2022-12-07T13:23:26;27.52;;;13.57;;
34242;SDS011;20504;43.214;27.920;2022-12-07T13:29:17;32.17;;;15.13;;
34242;SDS011;20504;43.214;27.920;2022-12-07T13:34:35;27.23;;;14.10;;
34242;SDS011;20504;43.214;27.920;2022-12-07T13:37:36;29.75;;;13.38;;
34242;SDS011;20504;43.214;27.920;2022-12-07T13:39:58;19.58;;;11.48;;
34242;SDS011;20504;43.214;27.920;2022-12-07T13:42:29;19.63;;;11.85;;
34242;SDS011;20504;43.214;27.920;2022-12-07T13:44:56;27.00;;;13.20;;
34242;SDS011;20504;43.214;27.920;2022-12-07T13:49:52;15.38;;;11.80;;
34242;SDS011;20504;43.214;27.920;2022-12-07T13:57:31;25.23;;;13.07;;
34242;SDS011;20504;43.214;27.920;2022-12-07T14:00:00;22.27;;;13.82;;
34242;SDS011;20504;43.214;27.920;2022-12-07T14:02:54;28.52;;;15.18;;
34242;SDS011;20504;43.214;27.920;2022-12-07T14:10:27;28.60;;;14.40;;
34242;SDS011;20504;43.214;27.920;2022-12-07T14:12:56;26.40;;;15.10;;
34242;SDS011;20504;43.214;27.920;2022-12-07T14:15:23;26.25;;;15.38;;
34242;SDS011;20504;43.214;27.920;2022-12-07T14:17:55;24.58;;;14.50;;
34242;SDS011;20504;43.214;27.920;2022-12-07T14:20:28;29.58;;;15.43;;
34242;SDS011;20504;43.214;27.920;2022-12-07T14:22:58;25.95;;;15.23;;
34242;SDS011;20504;43.214;27.920;2022-12-07T14:25:24;33.73;;;17.40;;
34242;SDS011;20504;43.214;27.920;2022-12-07T14:30:23;35.00;;;18.42;;
34242;SDS011;20504;43.214;27.920;2022-12-07T14:32:52;36.55;;;18.05;;
34242;SDS011;20504;43.214;27.920;2022-12-07T14:35:20;37.53;;;18.55;;
34242;SDS011;20504;43.214;27.920;2022-12-07T14:37:47;35.60;;;16.67;;
34242;SDS011;20504;43.214;27.920;2022-12-07T14:40:15;36.40;;;17.80;;
34242;SDS011;20504;43.214;27.920;2022-12-07T14:42:43;33.53;;;17.20;;
34242;SDS011;20504;43.214;27.920;2022-12-07T14:45:16;47.10;;;20.15;;
34242;SDS011;20504;43.214;27.920;2022-12-07T14:47:44;40.17;;;19.80;;
34242;SDS011;20504;43.214;27.920;2022-12-07T14:52:37;40.90;;;19.02;;
34242;SDS011;20504;43.214;27.920;2022-12-07T14:55:04;40.25;;;19.02;;
34242;SDS011;20504;43.214;27.920;2022-12-07T14:57:30;45.67;;;20.95;;
34242;SDS011;20504;43.214;27.920;2022-12-07T14:59:56;44.50;;;22.93;;
34242;SDS011;20504;43.214;27.920;2022-12-07T15:02:21;44.17;;;20.27;;
34242;SDS011;20504;43.214;27.920;2022-12-07T15:04:46;39.40;;;20.90;;
34242;SDS011;20504;43.214;27.920;2022-12-07T15:07:15;49.07;;;23.53;;
34242;SDS011;20504;43.214;27.920;2022-12-07T15:09:44;58.50;;;32.60;;
34242;SDS011;20504;43.214;27.920;2022-12-07T15:12:10;48.30;;;26.03;;
34242;SDS011;20504;43.214;27.920;2022-12-07T15:14:36;40.60;;;23.33;;
34242;SDS011;20504;43.214;27.920;2022-12-07T15:17:01;32.47;;;19.73;;
34242;SDS011;20504;43.214;27.920;2022-12-07T15:19:27;45.23;;;24.83;;
34242;SDS011;20504;43.214;27.920;2022-12-07T15:21:52;45.47;;;25.20;;
34242;SDS011;20504;43.214;27.920;2022-12-07T15:24:18;87.43;;;37.00;;
34242;SDS011;20504;43.214;27.920;2022-12-07T15:26:44;63.25;;;28.88;;
34242;SDS011;20504;43.214;27.920;2022-12-07T15:29:10;53.67;;;27.43;;
34242;SDS011;20504;43.214;27.920;2022-12-07T15:31:36;55.72;;;28.17;;
34242;SDS011;20504;43.214;27.920;2022-12-07T15:34:02;49.73;;;24.13;;
34242;SDS011;20504;43.214;27.920;2022-12-07T15:36:30;47.45;;;24.42;;
34242;SDS011;20504;43.214;27.920;2022-12-07T15:38:56;41.80;;;21.67;;
34242;SDS011;20504;43.214;27.920;2022-12-07T15:41:22;41.07;;;23.00;;
34242;SDS011;20504;43.214;27.920;2022-12-07T15:43:48;43.42;;;21.98;;
34242;SDS011;20504;43.214;27.920;2022-12-07T15:46:33;41.30;;;20.23;;
34242;SDS011;20504;43.214;27.920;2022-12-07T15:49:04;44.30;;;19.67;;
34242;SDS011;20504;43.214;27.920;2022-12-07T15:51:34;36.25;;;19.25;;
34242;SDS011;20504;43.214;27.920;2022-12-07T15:53:59;39.20;;;21.83;;
34242;SDS011;20504;43.214;27.920;2022-12-07T15:56:25;36.83;;;19.30;;
34242;SDS011;20504;43.214;27.920;2022-12-07T15:58:50;34.60;;;20.17;;
34242;SDS011;20504;43.214;27.920;2022-12-07T16:01:17;37.50;;;23.57;;
34242;SDS011;20504;43.214;27.920;2022-12-07T16:03:44;41.92;;;20.63;;
34242;SDS011;20504;43.214;27.920;2022-12-07T16:06:10;26.83;;;13.82;;
34242;SDS011;20504;43.214;27.920;2022-12-07T16:08:36;33.78;;;20.10;;
34242;SDS011;20504;43.214;27.920;2022-12-07T16:11:06;40.67;;;20.85;;
34242;SDS011;20504;43.214;27.920;2022-12-07T16:13:32;36.73;;;22.07;;
34242;SDS011;20504;43.214;27.920;2022-12-07T16:16:01;39.00;;;22.52;;
34242;SDS011;20504;43.214;27.920;2022-12-07T16:18:32;38.63;;;22.15;;
34242;SDS011;20504;43.214;27.920;2022-12-07T16:20:57;42.90;;;23.57;;
34242;SDS011;20504;43.214;27.920;2022-12-07T16:23:23;33.10;;;21.00;;
34242;SDS011;20504;43.214;27.920;2022-12-07T16:25:48;34.00;;;21.87;;
34242;SDS011;20504;43.214;27.920;2022-12-07T16:28:14;43.20;;;22.40;;
34242;SDS011;20504;43.214;27.920;2022-12-07T16:30:39;37.70;;;21.87;;
34242;SDS011;20504;43.214;27.920;2022-12-07T16:33:05;31.40;;;21.90;;
34242;SDS011;20504;43.214;27.920;2022-12-07T16:35:31;65.87;;;39.47;;
34242;SDS011;20504;43.214;27.920;2022-12-07T16:37:56;48.00;;;29.60;;
34242;SDS011;20504;43.214;27.920;2022-12-07T16:40:21;45.67;;;24.53;;
34242;SDS011;20504;43.214;27.920;2022-12-07T16:42:47;47.60;;;23.30;;
34242;SDS011;20504;43.214;27.920;2022-12-07T16:45:12;39.70;;;23.53;;
34242;SDS011;20504;43.214;27.920;2022-12-07T16:47:38;38.10;;;22.97;;
34242;SDS011;20504;43.214;27.920;2022-12-07T16:50:04;39.88;;;23.52;;
34242;SDS011;20504;43.214;27.920;2022-12-07T16:52:31;39.13;;;21.52;;
34242;SDS011;20504;43.214;27.920;2022-12-07T16:54:56;47.20;;;23.17;;
34242;SDS011;20504;43.214;27.920;2022-12-07T16:57:21;42.33;;;23.83;;
34242;SDS011;20504;43.214;27.920;2022-12-07T16:59:47;42.77;;;24.20;;
34242;SDS011;20504;43.214;27.920;2022-12-07T17:02:12;46.33;;;27.37;;
34242;SDS011;20504;43.214;27.920;2022-12-07T17:04:38;41.57;;;22.37;;
34242;SDS011;20504;43.214;27.920;2022-12-07T17:07:07;41.15;;;23.48;;
34242;SDS011;20504;43.214;27.920;2022-12-07T17:09:33;38.17;;;22.75;;
34242;SDS011;20504;43.214;27.920;2022-12-07T17:12:00;36.88;;;23.58;;
34242;SDS011;20504;43.214;27.920;2022-12-07T17:14:25;38.93;;;23.47;;
34242;SDS011;20504;43.214;27.920;2022-12-07T17:17:09;39.13;;;24.33;;
34242;SDS011;20504;43.214;27.920;2022-12-07T17:19:35;36.50;;;23.07;;
34242;SDS011;20504;43.214;27.920;2022-12-07T17:22:00;37.50;;;22.83;;
34242;SDS011;20504;43.214;27.920;2022-12-07T17:24:26;37.27;;;24.27;;
34242;SDS011;20504;43.214;27.920;2022-12-07T17:26:51;36.77;;;22.40;;
34242;SDS011;20504;43.214;27.920;2022-12-07T17:29:17;41.03;;;22.80;;
34242;SDS011;20504;43.214;27.920;2022-12-07T17:34:10;34.08;;;22.25;;
34242;SDS011;20504;43.214;27.920;2022-12-07T17:36:37;36.33;;;22.27;;
34242;SDS011;20504;43.214;27.920;2022-12-07T17:39:07;36.30;;;22.00;;
34242;SDS011;20504;43.214;27.920;2022-12-07T17:41:34;40.58;;;23.30;;
34242;SDS011;20504;43.214;27.920;2022-12-07T17:44:19;40.30;;;23.35;;
34242;SDS011;20504;43.214;27.920;2022-12-07T17:49:12;38.17;;;22.73;;
34242;SDS011;20504;43.214;27.920;2022-12-07T17:51:38;42.43;;;25.70;;
34242;SDS011;20504;43.214;27.920;2022-12-07T17:54:22;36.38;;;23.60;;
34242;SDS011;20504;43.214;27.920;2022-12-07T17:56:48;29.00;;;16.90;;
34242;SDS011;20504;43.214;27.920;2022-12-07T17:59:14;40.57;;;22.93;;
34242;SDS011;20504;43.214;27.920;2022-12-07T18:01:40;40.33;;;22.30;;
34242;SDS011;20504;43.214;27.920;2022-12-07T18:04:06;34.88;;;22.13;;
34242;SDS011;20504;43.214;27.920;2022-12-07T18:06:32;40.30;;;22.23;;
34242;SDS011;20504;43.214;27.920;2022-12-07T18:08:58;32.13;;;20.20;;
34242;SDS011;20504;43.214;27.920;2022-12-07T18:11:24;37.95;;;20.70;;
34242;SDS011;20504;43.214;27.920;2022-12-07T18:13:50;43.42;;;23.38;;
34242;SDS011;20504;43.214;27.920;2022-12-07T18:16:17;39.23;;;22.37;;
34242;SDS011;20504;43.214;27.920;2022-12-07T18:18:45;39.78;;;24.17;;
34242;SDS011;20504;43.214;27.920;2022-12-07T18:21:15;33.92;;;21.02;;
34242;SDS011;20504;43.214;27.920;2022-12-07T18:23:43;40.28;;;21.65;;
34242;SDS011;20504;43.214;27.920;2022-12-07T18:26:11;31.83;;;20.80;;
34242;SDS011;20504;43.214;27.920;2022-12-07T18:31:03;39.00;;;21.70;;
34242;SDS011;20504;43.214;27.920;2022-12-07T18:33:28;42.33;;;24.10;;
34242;SDS011;20504;43.214;27.920;2022-12-07T18:35:54;44.30;;;24.17;;
34242;SDS011;20504;43.214;27.920;2022-12-07T18:38:20;39.50;;;23.97;;
34242;SDS011;20504;43.214;27.920;2022-12-07T18:40:45;46.60;;;24.17;;
34242;SDS011;20504;43.214;27.920;2022-12-07T18:43:11;40.83;;;24.77;;
34242;SDS011;20504;43.214;27.920;2022-12-07T18:45:37;39.60;;;21.23;;
34242;SDS011;20504;43.214;27.920;2022-12-07T18:48:05;36.70;;;22.13;;
34242;SDS011;20504;43.214;27.920;2022-12-07T18:50:31;37.75;;;23.17;;
34242;SDS011;20504;43.214;27.920;2022-12-07T18:52:57;41.10;;;23.37;;
34242;SDS011;20504;43.214;27.920;2022-12-07T18:55:24;43.63;;;24.30;;
34242;SDS011;20504;43.214;27.920;2022-12-07T19:00:17;43.15;;;22.33;;
34242;SDS011;20504;43.214;27.920;2022-12-07T19:02:42;38.90;;;21.90;;
34242;SDS011;20504;43.214;27.920;2022-12-07T19:05:08;41.20;;;23.13;;
34242;SDS011;20504;43.214;27.920;2022-12-07T19:07:33;43.00;;;25.57;;
34242;SDS011;20504;43.214;27.920;2022-12-07T19:09:59;45.03;;;21.90;;
34242;SDS011;20504;43.214;27.920;2022-12-07T19:12:24;37.47;;;23.50;;
34242;SDS011;20504;43.214;27.920;2022-12-07T19:14:50;37.83;;;23.80;;
34242;SDS011;20504;43.214;27.920;2022-12-07T19:17:15;35.83;;;22.60;;
34242;SDS011;20504;43.214;27.920;2022-12-07T19:19:42;39.83;;;22.40;;
34242;SDS011;20504;43.214;27.920;2022-12-07T19:22:10;35.67;;;21.80;;
34242;SDS011;20504;43.214;27.920;2022-12-07T19:24:37;36.60;;;22.33;;
34242;SDS011;20504;43.214;27.920;2022-12-07T19:27:04;42.47;;;26.97;;
34242;SDS011;20504;43.214;27.920;2022-12-07T19:29:30;32.22;;;19.25;;
34242;SDS011;20504;43.214;27.920;2022-12-07T19:31:57;39.60;;;21.63;;
34242;SDS011;20504;43.214;27.920;2022-12-07T19:34:23;31.40;;;20.20;;
34242;SDS011;20504;43.214;27.920;2022-12-07T19:36:48;29.13;;;16.87;;
34242;SDS011;20504;43.214;27.920;2022-12-07T19:39:14;27.30;;;16.33;;
34242;SDS011;20504;43.214;27.920;2022-12-07T19:41:40;18.00;;;12.17;;
34242;SDS011;20504;43.214;27.920;2022-12-07T19:44:14;33.65;;;17.13;;
34242;SDS011;20504;43.214;27.920;2022-12-07T19:46:42;32.63;;;18.38;;
34242;SDS011;20504;43.214;27.920;2022-12-07T19:49:10;34.28;;;19.63;;
34242;SDS011;20504;43.214;27.920;2022-12-07T19:51:40;33.78;;;19.88;;
34242;SDS011;20504;43.214;27.920;2022-12-07T19:54:06;36.60;;;20.35;;
34242;SDS011;20504;43.214;27.920;2022-12-07T19:56:34;41.97;;;23.17;;
34242;SDS011;20504;43.214;27.920;2022-12-07T19:59:00;43.77;;;23.27;;
34242;SDS011;20504;43.214;27.920;2022-12-07T20:01:26;40.45;;;23.80;;
34242;SDS011;20504;43.214;27.920;2022-12-07T20:03:53;43.78;;;25.25;;
34242;SDS011;20504;43.214;27.920;2022-12-07T20:06:19;44.20;;;24.88;;
34242;SDS011;20504;43.214;27.920;2022-12-07T20:08:45;36.97;;;23.60;;
34242;SDS011;20504;43.214;27.920;2022-12-07T20:11:12;49.33;;;25.88;;
34242;SDS011;20504;43.214;27.920;2022-12-07T20:13:56;56.63;;;26.20;;
34242;SDS011;20504;43.214;27.920;2022-12-07T20:16:22;44.73;;;27.57;;
34242;SDS011;20504;43.214;27.920;2022-12-07T20:18:48;51.70;;;27.45;;
34242;SDS011;20504;43.214;27.920;2022-12-07T20:21:14;54.30;;;28.90;;
34242;SDS011;20504;43.214;27.920;2022-12-07T20:23:39;58.30;;;29.53;;
34242;SDS011;20504;43.214;27.920;2022-12-07T20:26:08;49.08;;;28.65;;
34242;SDS011;20504;43.214;27.920;2022-12-07T20:28:35;54.17;;;29.17;;
34242;SDS011;20504;43.214;27.920;2022-12-07T20:31:01;49.35;;;28.45;;
34242;SDS011;20504;43.214;27.920;2022-12-07T20:33:27;49.83;;;28.90;;
34242;SDS011;20504;43.214;27.920;2022-12-07T20:36:00;59.88;;;29.77;;
34242;SDS011;20504;43.214;27.920;2022-12-07T20:38:27;55.15;;;28.90;;
34242;SDS011;20504;43.214;27.920;2022-12-07T20:40:57;53.83;;;30.30;;
34242;SDS011;20504;43.214;27.920;2022-12-07T20:43:25;58.83;;;30.33;;
34242;SDS011;20504;43.214;27.920;2022-12-07T20:45:50;60.73;;;32.30;;
34242;SDS011;20504;43.214;27.920;2022-12-07T20:48:16;53.13;;;30.50;;
34242;SDS011;20504;43.214;27.920;2022-12-07T20:50:41;57.37;;;30.77;;
34242;SDS011;20504;43.214;27.920;2022-12-07T20:53:07;54.90;;;30.97;;
34242;SDS011;20504;43.214;27.920;2022-12-07T20:57:59;49.80;;;29.58;;
34242;SDS011;20504;43.214;27.920;2022-12-07T21:00:25;60.40;;;32.20;;
34242;SDS011;20504;43.214;27.920;2022-12-07T21:02:51;59.92;;;33.08;;
34242;SDS011;20504;43.214;27.920;2022-12-07T21:05:16;56.63;;;32.47;;
34242;SDS011;20504;43.214;27.920;2022-12-07T21:07:42;54.92;;;30.92;;
34242;SDS011;20504;43.214;27.920;2022-12-07T21:10:09;45.40;;;23.23;;
34242;SDS011;20504;43.214;27.920;2022-12-07T21:12:35;60.72;;;31.08;;
34242;SDS011;20504;43.214;27.920;2022-12-07T21:15:00;60.03;;;31.43;;
34242;SDS011;20504;43.214;27.920;2022-12-07T21:17:26;60.97;;;32.23;;
34242;SDS011;20504;43.214;27.920;2022-12-07T21:19:51;61.67;;;33.17;;
34242;SDS011;20504;43.214;27.920;2022-12-07T21:22:17;56.67;;;33.13;;
34242;SDS011;20504;43.214;27.920;2022-12-07T21:24:42;61.37;;;36.30;;
34242;SDS011;20504;43.214;27.920;2022-12-07T21:27:08;60.20;;;35.17;;
34242;SDS011;20504;43.214;27.920;2022-12-07T21:29:33;52.53;;;32.97;;
34242;SDS011;20504;43.214;27.920;2022-12-07T21:34:25;66.30;;;35.95;;
34242;SDS011;20504;43.214;27.920;2022-12-07T21:36:51;60.40;;;36.70;;
34242;SDS011;20504;43.214;27.920;2022-12-07T21:39:16;56.57;;;34.93;;
34242;SDS011;20504;43.214;27.920;2022-12-07T21:41:42;75.50;;;44.50;;
34242;SDS011;20504;43.214;27.920;2022-12-07T21:44:07;77.17;;;41.03;;
34242;SDS011;20504;43.214;27.920;2022-12-07T21:46:37;69.47;;;40.42;;
34242;SDS011;20504;43.214;27.920;2022-12-07T21:49:06;75.05;;;43.55;;
34242;SDS011;20504;43.214;27.920;2022-12-07T21:51:34;71.60;;;41.03;;
34242;SDS011;20504;43.214;27.920;2022-12-07T21:54:01;71.80;;;40.92;;
34242;SDS011;20504;43.214;27.920;2022-12-07T21:56:29;70.32;;;40.85;;
34242;SDS011;20504;43.214;27.920;2022-12-07T21:59:00;75.00;;;41.42;;
34242;SDS011;20504;43.214;27.920;2022-12-07T22:01:29;67.55;;;38.97;;
34242;SDS011;20504;43.214;27.920;2022-12-07T22:03:59;66.53;;;39.28;;
34242;SDS011;20504;43.214;27.920;2022-12-07T22:06:25;65.60;;;39.73;;
34242;SDS011;20504;43.214;27.920;2022-12-07T22:08:51;66.10;;;39.65;;
34242;SDS011;20504;43.214;27.920;2022-12-07T22:13:43;70.53;;;39.28;;
34242;SDS011;20504;43.214;27.920;2022-12-07T22:16:28;71.32;;;40.88;;
34242;SDS011;20504;43.214;27.920;2022-12-07T22:18:54;67.07;;;38.43;;
34242;SDS011;20504;43.214;27.920;2022-12-07T22:21:21;67.30;;;40.70;;
34242;SDS011;20504;43.214;27.920;2022-12-07T22:23:47;50.78;;;30.52;;
34242;SDS011;20504;43.214;27.920;2022-12-07T22:26:14;71.97;;;43.13;;
34242;SDS011;20504;43.214;27.920;2022-12-07T22:28:40;71.43;;;40.17;;
34242;SDS011;20504;43.214;27.920;2022-12-07T22:31:08;69.13;;;41.17;;
34242;SDS011;20504;43.214;27.920;2022-12-07T22:33:35;71.80;;;41.05;;
34242;SDS011;20504;43.214;27.920;2022-12-07T22:36:01;74.80;;;41.33;;
34242;SDS011;20504;43.214;27.920;2022-12-07T22:38:27;67.13;;;40.30;;
34242;SDS011;20504;43.214;27.920;2022-12-07T22:40:54;54.90;;;30.10;;
34242;SDS011;20504;43.214;27.920;2022-12-07T22:43:20;67.97;;;39.50;;
34242;SDS011;20504;43.214;27.920;2022-12-07T22:45:55;71.07;;;41.85;;
34242;SDS011;20504;43.214;27.920;2022-12-07T22:48:22;78.32;;;43.70;;
34242;SDS011;20504;43.214;27.920;2022-12-07T22:50:48;76.47;;;43.67;;
34242;SDS011;20504;43.214;27.920;2022-12-07T22:53:15;74.95;;;41.58;;
34242;SDS011;20504;43.214;27.920;2022-12-07T22:55:41;72.73;;;41.90;;
34242;SDS011;20504;43.214;27.920;2022-12-07T22:58:06;71.73;;;41.43;;
34242;SDS011;20504;43.214;27.920;2022-12-07T23:00:32;74.20;;;42.43;;
34242;SDS011;20504;43.214;27.920;2022-12-07T23:02:58;68.43;;;41.58;;
34242;SDS011;20504;43.214;27.920;2022-12-07T23:05:23;70.07;;;41.93;;
34242;SDS011;20504;43.214;27.920;2022-12-07T23:07:49;67.13;;;41.03;;
34242;SDS011;20504;43.214;27.920;2022-12-07T23:10:15;75.60;;;42.90;;
34242;SDS011;20504;43.214;27.920;2022-12-07T23:12:41;75.73;;;43.47;;
34242;SDS011;20504;43.214;27.920;2022-12-07T23:15:25;69.75;;;40.42;;
34242;SDS011;20504;43.214;27.920;2022-12-07T23:17:50;74.23;;;43.17;;
34242;SDS011;20504;43.214;27.920;2022-12-07T23:20:16;70.80;;;42.17;;
34242;SDS011;20504;43.214;27.920;2022-12-07T23:22:41;77.13;;;42.97;;
34242;SDS011;20504;43.214;27.920;2022-12-07T23:25:07;71.07;;;39.93;;
34242;SDS011;20504;43.214;27.920;2022-12-07T23:27:33;71.57;;;40.37;;
34242;SDS011;20504;43.214;27.920;2022-12-07T23:29:58;69.80;;;38.40;;
34242;SDS011;20504;43.214;27.920;2022-12-07T23:32:24;73.57;;;41.20;;
34242;SDS011;20504;43.214;27.920;2022-12-07T23:34:49;67.50;;;38.90;;
34242;SDS011;20504;43.214;27.920;2022-12-07T23:37:15;66.47;;;38.57;;
34242;SDS011;20504;43.214;27.920;2022-12-07T23:39:40;72.50;;;39.97;;
34242;SDS011;20504;43.214;27.920;2022-12-07T23:42:06;68.73;;;37.83;;
34242;SDS011;20504;43.214;27.920;2022-12-07T23:44:31;66.30;;;39.00;;
34242;SDS011;20504;43.214;27.920;2022-12-07T23:46:56;73.13;;;39.63;;
34242;SDS011;20504;43.214;27.920;2022-12-07T23:49:22;63.43;;;36.63;;
34242;SDS011;20504;43.214;27.920;2022-12-07T23:51:47;69.17;;;37.27;;
34242;SDS011;20504;43.214;27.920;2022-12-07T23:54:13;62.40;;;36.27;;
34242;SDS011;20504;43.214;27.920;2022-12-07T23:56:39;67.70;;;36.67;;
34242;SDS011;20504;43.214;27.920;2022-12-07T23:59:04;68.35;;;37.50;;
